createdAt,value
2022-11-21T00:00:25.620Z,1.98
2022-11-21T00:02:52.103Z,1.52
2022-11-21T00:05:19.127Z,1.85
2022-11-21T00:07:46.123Z,1.88
2022-11-21T00:10:13.170Z,1.67
2022-11-21T00:12:40.012Z,1.80
2022-11-21T00:15:06.835Z,1.80
2022-11-21T00:17:33.424Z,1.92
2022-11-21T00:19:59.920Z,1.67
2022-11-21T00:22:26.417Z,1.52
2022-11-21T00:24:54.313Z,1.73
2022-11-21T00:27:20.966Z,1.95
2022-11-21T00:29:47.395Z,1.60
2022-11-21T00:32:13.840Z,1.75
2022-11-21T00:34:40.288Z,1.65
2022-11-21T00:37:06.747Z,1.60
2022-11-21T00:39:33.255Z,1.70
2022-11-21T00:41:59.693Z,2.13
2022-11-21T00:44:26.421Z,1.80
2022-11-21T00:46:53.096Z,1.40
2022-11-21T00:49:19.562Z,1.40
2022-11-21T00:51:46.003Z,1.45
2022-11-21T00:54:12.543Z,1.58
2022-11-21T00:56:39.055Z,1.40
2022-11-21T00:59:05.563Z,1.45
2022-11-21T01:01:32.104Z,1.80
2022-11-21T01:03:59.196Z,1.50
2022-11-21T01:06:25.760Z,1.75
2022-11-21T01:08:52.187Z,1.40
2022-11-21T01:11:20.676Z,1.70
2022-11-21T01:13:48.122Z,1.38
2022-11-21T01:16:20.502Z,1.02
2022-11-21T01:18:47.419Z,1.58
2022-11-21T01:21:20.884Z,1.60
2022-11-21T01:23:48.427Z,1.65
2022-11-21T01:26:20.880Z,1.40
2022-11-21T01:28:47.803Z,1.73
2022-11-21T01:31:21.768Z,1.63
2022-11-21T01:33:48.818Z,1.38
2022-11-21T01:36:17.966Z,1.48
2022-11-21T01:38:47.546Z,1.23
2022-11-21T01:41:23.093Z,1.42
2022-11-21T01:43:50.431Z,1.17
2022-11-21T01:49:09.056Z,1.25
2022-11-21T01:51:44.553Z,1.48
2022-11-21T01:54:36.273Z,1.30
2022-11-21T02:00:24.382Z,1.20
2022-11-21T02:02:54.140Z,1.40
2022-11-21T02:05:27.706Z,1.20
2022-11-21T02:07:58.928Z,1.23
2022-11-21T02:10:25.708Z,1.02
2022-11-21T02:12:54.026Z,1.10
2022-11-21T02:15:23.473Z,1.60
2022-11-21T02:17:49.993Z,1.23
2022-11-21T02:20:19.021Z,1.17
2022-11-21T02:22:58.332Z,1.55
2022-11-21T02:25:27.847Z,1.00
2022-11-21T02:27:59.823Z,1.00
2022-11-21T02:30:28.490Z,1.30
2022-11-21T02:32:55.739Z,1.17
2022-11-21T02:35:22.327Z,1.30
2022-11-21T02:38:00.195Z,1.17
2022-11-21T02:40:31.946Z,1.00
2022-11-21T02:43:10.672Z,1.00
2022-11-21T02:45:43.318Z,1.00
2022-11-21T02:48:10.478Z,1.25
2022-11-21T02:50:43.167Z,1.10
2022-11-21T02:53:13.887Z,1.00
2022-11-21T02:55:40.703Z,1.08
2022-11-21T02:58:07.492Z,1.13
2022-11-21T03:00:36.017Z,1.02
2022-11-21T03:03:02.833Z,1.08
2022-11-21T03:05:29.967Z,1.02
2022-11-21T03:07:56.539Z,0.93
2022-11-21T03:10:23.017Z,0.80
2022-11-21T03:12:49.468Z,1.00
2022-11-21T03:15:16.247Z,0.93
2022-11-21T03:17:43.462Z,0.85
2022-11-21T03:20:10.680Z,1.00
2022-11-21T03:22:37.135Z,1.13
2022-11-21T03:25:03.804Z,1.15
2022-11-21T03:27:30.284Z,1.10
2022-11-21T03:29:56.728Z,1.00
2022-11-21T03:32:23.159Z,0.95
2022-11-21T03:34:49.630Z,1.15
2022-11-21T03:37:17.015Z,1.00
2022-11-21T03:42:09.876Z,0.90
2022-11-21T03:44:36.359Z,0.98
2022-11-21T03:47:02.809Z,0.98
2022-11-21T03:49:29.304Z,0.80
2022-11-21T03:51:55.776Z,0.70
2022-11-21T03:54:22.223Z,1.08
2022-11-21T03:56:48.679Z,0.95
2022-11-21T03:59:16.575Z,1.05
2022-11-21T04:01:43.157Z,0.98
2022-11-21T04:04:09.658Z,0.90
2022-11-21T04:06:36.096Z,0.90
2022-11-21T04:09:02.799Z,0.90
2022-11-21T04:11:29.243Z,1.00
2022-11-21T04:13:55.754Z,0.85
2022-11-21T04:16:22.201Z,1.00
2022-11-21T04:18:48.676Z,0.75
2022-11-21T04:21:15.146Z,0.90
2022-11-21T04:23:41.572Z,0.93
2022-11-21T04:26:08.372Z,0.60
2022-11-21T04:28:34.954Z,0.70
2022-11-21T04:31:10.280Z,0.70
2022-11-21T04:33:37.663Z,0.70
2022-11-21T04:36:04.332Z,0.75
2022-11-21T04:38:30.773Z,0.82
2022-11-21T04:40:57.221Z,0.63
2022-11-21T04:43:23.695Z,0.60
2022-11-21T04:45:50.139Z,0.68
2022-11-21T04:48:16.574Z,0.70
2022-11-21T04:50:43.026Z,0.73
2022-11-21T04:53:09.491Z,0.65
2022-11-21T04:55:36.017Z,0.55
2022-11-21T04:58:02.491Z,0.60
2022-11-21T05:00:29.128Z,0.70
2022-11-21T05:02:55.604Z,0.80
2022-11-21T05:05:22.039Z,0.80
2022-11-21T05:07:48.494Z,0.70
2022-11-21T05:10:14.985Z,0.77
2022-11-21T05:12:59.811Z,0.60
2022-11-21T05:15:26.246Z,0.60
2022-11-21T05:17:52.692Z,0.55
2022-11-21T05:20:19.252Z,0.60
2022-11-21T05:22:51.483Z,0.68
2022-11-21T05:25:17.947Z,0.40
2022-11-21T05:27:44.455Z,0.60
2022-11-21T05:30:11.971Z,0.63
2022-11-21T05:32:38.475Z,0.70
2022-11-21T05:35:05.200Z,0.70
2022-11-21T05:37:31.678Z,0.80
2022-11-21T05:39:58.297Z,1.00
2022-11-21T05:42:44.700Z,0.60
2022-11-21T05:45:11.139Z,0.90
2022-11-21T05:47:37.583Z,0.80
2022-11-21T05:50:04.822Z,0.77
2022-11-21T05:52:31.288Z,0.80
2022-11-21T05:54:57.751Z,0.90
2022-11-21T05:57:24.280Z,0.90
2022-11-21T05:59:50.727Z,1.10
2022-11-21T06:02:35.798Z,0.93
2022-11-21T06:05:02.299Z,0.80
2022-11-21T06:07:28.788Z,0.90
2022-11-21T06:09:55.269Z,0.80
2022-11-21T06:12:25.429Z,0.70
2022-11-21T06:14:52.435Z,0.85
2022-11-21T06:17:18.900Z,0.60
2022-11-21T06:19:45.326Z,0.57
2022-11-21T06:22:11.767Z,0.70
2022-11-21T06:24:38.232Z,0.55
2022-11-21T06:27:04.666Z,0.77
2022-11-21T06:29:31.120Z,0.60
2022-11-21T06:31:57.593Z,0.70
2022-11-21T06:34:26.385Z,0.60
2022-11-21T06:36:53.469Z,0.63
2022-11-21T06:39:19.903Z,0.80
2022-11-21T06:41:51.134Z,0.80
2022-11-21T06:44:18.818Z,0.60
2022-11-21T06:46:50.748Z,0.60
2022-11-21T06:49:17.916Z,0.70
2022-11-21T06:51:44.378Z,0.80
2022-11-21T06:54:16.267Z,0.70
2022-11-21T06:56:43.611Z,0.80
2022-11-21T06:59:10.128Z,0.77
2022-11-21T07:01:36.634Z,0.90
2022-11-21T07:04:03.173Z,0.60
2022-11-21T07:06:29.605Z,0.75
2022-11-21T07:09:25.372Z,1.00
2022-11-21T07:11:43.111Z,0.95
2022-11-21T07:14:09.749Z,0.82
2022-11-21T07:16:36.944Z,0.90
2022-11-21T07:19:03.461Z,0.60
2022-11-21T07:21:29.973Z,0.80
2022-11-21T07:23:56.451Z,0.90
2022-11-21T07:26:22.988Z,0.70
2022-11-21T07:28:49.453Z,0.68
2022-11-21T07:31:15.893Z,0.75
2022-11-21T07:33:46.826Z,0.70
2022-11-21T07:36:13.769Z,0.90
2022-11-21T07:38:41.613Z,0.70
2022-11-21T07:41:09.049Z,0.70
2022-11-21T07:43:35.696Z,0.60
2022-11-21T07:46:02.300Z,0.70
2022-11-21T07:48:28.816Z,0.75
2022-11-21T07:50:55.260Z,0.80
2022-11-21T07:53:21.775Z,0.73
2022-11-21T07:55:48.306Z,0.88
2022-11-21T07:58:16.430Z,1.08
2022-11-21T08:00:43.228Z,0.98
2022-11-21T08:03:12.081Z,0.70
2022-11-21T08:05:40.335Z,1.40
2022-11-21T08:08:07.671Z,1.38
2022-11-21T08:13:03.446Z,1.38
2022-11-21T08:15:29.878Z,1.27
2022-11-21T08:17:56.333Z,0.95
2022-11-21T08:20:22.816Z,0.90
2022-11-21T08:22:49.239Z,1.30
2022-11-21T08:25:15.780Z,1.10
2022-11-21T08:27:42.357Z,1.00
2022-11-21T08:30:11.158Z,1.05
2022-11-21T08:32:37.687Z,1.25
2022-11-21T08:35:04.503Z,0.90
2022-11-21T08:37:31.075Z,1.05
2022-11-21T08:40:00.919Z,0.95
2022-11-21T08:42:27.687Z,1.00
2022-11-21T08:44:54.191Z,1.02
2022-11-21T08:47:20.811Z,0.77
2022-11-21T08:49:47.841Z,1.10
2022-11-21T08:52:17.995Z,0.95
2022-11-21T08:54:45.243Z,1.15
2022-11-21T08:57:12.243Z,0.80
2022-11-21T08:59:38.720Z,0.90
2022-11-21T09:02:05.257Z,1.02
2022-11-21T09:04:31.807Z,0.93
2022-11-21T09:06:58.352Z,0.85
2022-11-21T09:09:25.689Z,1.10
2022-11-21T09:11:52.495Z,0.70
2022-11-21T09:14:37.563Z,0.95
2022-11-21T09:17:22.433Z,0.75
2022-11-21T09:19:49.316Z,0.80
2022-11-21T09:22:15.750Z,1.10
2022-11-21T09:24:42.197Z,0.88
2022-11-21T09:27:08.666Z,1.00
2022-11-21T09:29:35.177Z,0.90
2022-11-21T09:32:01.720Z,0.95
2022-11-21T09:34:28.606Z,0.90
2022-11-21T09:36:55.576Z,0.82
2022-11-21T09:39:23.051Z,1.05
2022-11-21T09:44:49.901Z,0.60
2022-11-21T09:47:27.063Z,0.90
2022-11-21T09:50:01.139Z,0.85
2022-11-21T09:52:40.056Z,0.70
2022-11-21T09:55:20.487Z,1.00
2022-11-21T09:57:48.869Z,1.00
2022-11-21T10:00:33.666Z,0.80
2022-11-21T10:03:01.452Z,0.95
2022-11-21T10:05:52.452Z,0.95
2022-11-21T10:08:44.270Z,1.00
2022-11-21T10:12:00.312Z,0.80
2022-11-21T10:17:48.300Z,0.95
2022-11-21T10:20:46.983Z,0.80
2022-11-21T10:23:41.480Z,0.80
2022-11-21T10:26:45.672Z,0.90
2022-11-21T10:29:39.039Z,1.10
2022-11-21T10:32:16.736Z,0.90
2022-11-21T10:34:43.392Z,1.05
2022-11-21T10:37:32.027Z,0.80
2022-11-21T10:40:10.234Z,0.98
2022-11-21T10:42:46.229Z,1.45
2022-11-21T10:45:17.293Z,1.00
2022-11-21T10:47:45.792Z,1.20
2022-11-21T10:50:18.611Z,1.38
2022-11-21T10:53:29.422Z,1.15
2022-11-21T10:56:02.045Z,1.00
2022-11-21T10:58:36.231Z,0.95
2022-11-21T11:01:03.143Z,0.80
2022-11-21T11:03:31.576Z,1.35
2022-11-21T11:06:07.633Z,1.05
2022-11-21T11:08:51.955Z,1.00
2022-11-21T11:11:21.892Z,1.17
2022-11-21T11:13:53.056Z,1.10
2022-11-21T11:16:21.824Z,0.80
2022-11-21T11:18:57.871Z,0.95
2022-11-21T11:21:27.630Z,0.70
2022-11-21T11:24:05.822Z,0.80
2022-11-21T11:26:32.476Z,1.10
2022-11-21T11:29:09.644Z,0.95
2022-11-21T11:31:57.147Z,1.10
2022-11-21T11:34:27.152Z,1.20
2022-11-21T11:37:07.055Z,1.35
2022-11-21T11:39:36.980Z,1.63
2022-11-21T11:42:57.595Z,1.63
2022-11-21T11:46:14.907Z,1.65
2022-11-21T11:49:03.710Z,2.00
2022-11-21T11:51:37.091Z,2.00
2022-11-21T11:54:18.438Z,2.55
2022-11-21T11:56:47.029Z,2.30
2022-11-21T11:59:20.983Z,1.90
2022-11-21T12:02:23.949Z,2.10
2022-11-21T12:05:17.719Z,2.50
2022-11-21T12:11:12.303Z,2.17
2022-11-21T12:13:39.908Z,1.73
2022-11-21T12:16:13.926Z,1.92
2022-11-21T12:18:51.964Z,1.95
2022-11-21T12:21:19.647Z,2.13
2022-11-21T12:23:50.347Z,1.95
2022-11-21T12:26:50.620Z,1.60
2022-11-21T12:29:32.306Z,1.50
2022-11-21T12:32:24.511Z,1.40
2022-11-21T12:34:59.710Z,1.60
2022-11-21T12:38:03.107Z,1.35
2022-11-21T12:40:46.609Z,1.67
2022-11-21T12:43:43.035Z,1.27
2022-11-21T12:46:19.689Z,1.50
2022-11-21T12:49:31.588Z,1.85
2022-11-21T12:52:25.527Z,1.10
2022-11-21T12:54:54.739Z,1.20
2022-11-21T12:57:33.896Z,1.40
2022-11-21T13:00:33.487Z,1.10
2022-11-21T13:03:39.537Z,1.10
2022-11-21T13:06:13.295Z,1.10
2022-11-21T13:08:41.116Z,0.90
2022-11-21T13:11:36.196Z,1.00
2022-11-21T13:14:13.649Z,1.10
2022-11-21T13:16:48.180Z,1.13
2022-11-21T13:19:25.090Z,1.15
2022-11-21T13:21:56.385Z,1.05
2022-11-21T13:24:44.625Z,1.02
2022-11-21T13:27:29.212Z,0.85
2022-11-21T13:30:10.400Z,0.88
2022-11-21T13:35:38.267Z,1.00
2022-11-21T13:38:08.648Z,0.60
2022-11-21T13:40:39.006Z,0.75
2022-11-21T13:43:31.261Z,0.93
2022-11-21T13:45:56.547Z,0.95
2022-11-21T13:48:28.813Z,0.88
2022-11-21T13:51:13.431Z,0.80
2022-11-21T13:53:58.596Z,0.82
2022-11-21T13:56:45.132Z,0.70
2022-11-21T13:59:17.164Z,0.75
2022-11-21T14:02:26.075Z,0.70
2022-11-21T14:05:13.808Z,0.80
2022-11-21T14:07:42.648Z,0.55
2022-11-21T14:10:25.202Z,0.77
2022-11-21T14:12:55.168Z,0.70
2022-11-21T14:15:29.835Z,0.50
2022-11-21T14:17:58.864Z,0.93
2022-11-21T14:20:48.547Z,0.60
2022-11-21T14:23:19.177Z,0.70
2022-11-21T14:25:59.435Z,0.80
2022-11-21T14:28:30.027Z,0.90
2022-11-21T14:31:02.046Z,0.47
2022-11-21T14:33:28.536Z,0.45
2022-11-21T14:36:03.848Z,0.93
2022-11-21T14:38:35.054Z,0.50
2022-11-21T14:41:26.151Z,0.40
2022-11-21T14:43:58.815Z,0.65
2022-11-21T14:46:27.663Z,0.30
2022-11-21T14:48:57.231Z,0.60
2022-11-21T14:51:25.664Z,0.40
2022-11-21T14:53:53.682Z,0.52
2022-11-21T14:56:29.843Z,0.47
2022-11-21T14:58:58.767Z,0.40
2022-11-21T15:01:28.792Z,0.60
2022-11-21T15:03:56.960Z,0.40
2022-11-21T15:06:24.056Z,0.50
2022-11-21T15:09:52.733Z,0.40
2022-11-21T15:11:52.443Z,0.47
2022-11-21T15:14:18.825Z,0.40
2022-11-21T15:16:49.071Z,0.40
2022-11-21T15:19:24.695Z,0.70
2022-11-21T15:21:54.094Z,0.82
2022-11-21T15:24:32.846Z,1.30
2022-11-21T15:26:59.836Z,1.25
2022-11-21T15:29:28.734Z,2.50
2022-11-21T15:32:16.477Z,1.65
2022-11-21T15:34:43.656Z,1.85
2022-11-21T15:37:18.003Z,1.30
2022-11-21T15:39:48.038Z,1.40
2022-11-21T15:42:44.079Z,1.80
2022-11-21T15:45:20.129Z,1.63
2022-11-21T15:47:47.228Z,2.20
2022-11-21T15:50:14.422Z,2.05
2022-11-21T15:52:48.921Z,1.27
2022-11-21T15:55:26.096Z,1.90
2022-11-21T15:57:52.607Z,1.88
2022-11-21T16:00:19.255Z,1.67
2022-11-21T16:02:47.023Z,1.90
2022-11-21T16:05:15.474Z,1.60
2022-11-21T16:07:42.408Z,1.75
2022-11-21T16:10:17.988Z,1.77
2022-11-21T16:12:47.086Z,1.80
2022-11-21T16:15:14.225Z,1.50
2022-11-21T16:17:41.652Z,2.00
2022-11-21T16:20:08.574Z,1.67
2022-11-21T16:22:35.049Z,1.40
2022-11-21T16:25:01.560Z,1.48
2022-11-21T16:27:28.060Z,1.35
2022-11-21T16:29:54.507Z,1.40
2022-11-21T16:32:20.958Z,1.48
2022-11-21T16:34:47.400Z,1.48
2022-11-21T16:37:14.473Z,1.48
2022-11-21T16:39:41.897Z,1.38
2022-11-21T16:42:10.444Z,1.58
2022-11-21T16:44:36.887Z,1.38
2022-11-21T16:47:08.082Z,1.70
2022-11-21T16:49:35.603Z,1.20
2022-11-21T16:52:02.397Z,1.40
2022-11-21T16:54:28.839Z,1.42
2022-11-21T16:56:55.293Z,1.50
2022-11-21T16:59:21.779Z,1.27
2022-11-21T17:01:48.297Z,1.35
2022-11-21T17:04:29.127Z,1.30
2022-11-21T17:06:55.742Z,1.38
2022-11-21T17:09:22.195Z,1.20
2022-11-21T17:11:48.635Z,1.45
2022-11-21T17:14:15.073Z,1.50
2022-11-21T17:16:41.857Z,1.35
2022-11-21T17:19:11.277Z,1.45
2022-11-21T17:21:37.795Z,1.40
2022-11-21T17:24:04.356Z,1.70
2022-11-21T17:26:31.179Z,1.40
2022-11-21T17:29:00.395Z,1.40
2022-11-21T17:31:27.898Z,1.55
2022-11-21T17:33:56.665Z,1.50
2022-11-21T17:36:24.814Z,1.52
2022-11-21T17:38:52.507Z,1.55
2022-11-21T17:41:23.926Z,1.45
2022-11-21T17:43:54.354Z,1.90
2022-11-21T17:46:20.797Z,1.40
2022-11-21T17:48:55.069Z,1.48
2022-11-21T17:51:27.257Z,1.55
2022-11-21T17:53:53.816Z,1.85
2022-11-21T17:56:23.115Z,2.35
2022-11-21T17:58:50.828Z,2.05
2022-11-21T18:01:21.017Z,2.20
2022-11-21T18:04:07.714Z,1.77
2022-11-21T18:06:39.716Z,1.83
2022-11-21T18:09:07.730Z,2.17
2022-11-21T18:11:39.660Z,2.05
2022-11-21T18:14:08.183Z,2.50
2022-11-21T18:16:34.765Z,2.85
2022-11-21T18:19:01.244Z,2.63
2022-11-21T18:21:30.264Z,2.40
2022-11-21T18:23:57.912Z,2.45
2022-11-21T18:26:27.877Z,2.45
2022-11-21T18:29:13.544Z,2.50
2022-11-21T18:31:44.057Z,2.50
2022-11-21T18:36:37.275Z,2.75
2022-11-21T18:39:08.741Z,2.63
2022-11-21T18:41:38.832Z,2.38
2022-11-21T18:44:06.840Z,3.00
2022-11-21T18:46:35.893Z,3.05
2022-11-21T18:49:05.800Z,2.53
2022-11-21T18:51:34.070Z,2.83
2022-11-21T18:56:34.888Z,2.60
2022-11-21T18:59:03.292Z,2.42
2022-11-21T19:01:30.563Z,2.60
2022-11-21T19:03:58.327Z,2.78
2022-11-21T19:06:26.854Z,2.65
2022-11-21T19:08:55.179Z,2.75
2022-11-21T19:11:24.602Z,2.67
2022-11-21T19:13:51.581Z,2.55
2022-11-21T19:16:20.446Z,2.72
2022-11-21T19:19:05.516Z,2.90
2022-11-21T19:21:38.117Z,2.47
2022-11-21T19:24:06.717Z,3.00
2022-11-21T19:26:33.295Z,2.50
2022-11-21T19:28:59.739Z,2.35
2022-11-21T19:31:26.241Z,2.85
2022-11-21T19:33:52.852Z,2.95
2022-11-21T19:36:21.929Z,2.85
2022-11-21T19:38:51.143Z,2.85
2022-11-21T19:41:26.180Z,2.63
2022-11-21T19:43:54.919Z,2.53
2022-11-21T19:46:26.759Z,3.40
2022-11-21T19:48:56.047Z,2.90
2022-11-21T19:51:25.089Z,2.60
2022-11-21T19:53:51.708Z,2.92
2022-11-21T19:56:20.696Z,2.30
2022-11-21T19:58:48.102Z,3.00
2022-11-21T20:01:17.280Z,3.15
2022-11-21T20:03:45.656Z,2.80
2022-11-21T20:06:16.627Z,3.28
2022-11-21T20:08:43.419Z,2.95
2022-11-21T20:11:12.633Z,2.90
2022-11-21T20:13:40.548Z,3.03
2022-11-21T20:16:15.272Z,2.92
2022-11-21T20:18:41.720Z,3.28
2022-11-21T20:21:10.476Z,2.95
2022-11-21T20:23:37.112Z,3.50
2022-11-21T20:26:03.938Z,3.35
2022-11-21T20:28:30.678Z,3.35
2022-11-21T20:31:28.277Z,3.10
2022-11-21T20:36:24.165Z,3.28
2022-11-21T20:38:51.930Z,3.35
2022-11-21T20:41:19.424Z,3.30
2022-11-21T20:44:32.270Z,3.38
2022-11-21T20:46:34.259Z,3.97
2022-11-21T20:49:01.557Z,3.05
2022-11-21T20:54:14.478Z,3.50
2022-11-21T20:56:44.227Z,3.45
2022-11-21T20:59:11.139Z,3.58
2022-11-21T21:01:37.651Z,3.53
2022-11-21T21:04:04.330Z,3.70
2022-11-21T21:06:30.762Z,3.45
2022-11-21T21:08:57.339Z,3.42
2022-11-21T21:11:50.484Z,3.65
2022-11-21T21:14:11.566Z,3.72
2022-11-21T21:16:38.069Z,3.47
2022-11-21T21:19:04.543Z,3.45
2022-11-21T21:21:30.995Z,3.15
2022-11-21T21:24:03.428Z,3.67
2022-11-21T21:26:35.831Z,3.17
2022-11-21T21:29:06.996Z,3.53
2022-11-21T21:31:33.715Z,3.30
2022-11-21T21:34:00.825Z,3.42
2022-11-21T21:36:27.719Z,3.85
2022-11-21T21:38:56.204Z,4.35
2022-11-21T21:41:24.355Z,3.75
2022-11-21T21:43:52.492Z,3.58
2022-11-21T21:46:21.042Z,3.50
2022-11-21T21:48:48.326Z,3.13
2022-11-21T21:53:43.378Z,3.10
2022-11-21T21:56:10.967Z,3.72
2022-11-21T21:58:39.851Z,3.15
2022-11-21T22:01:07.309Z,3.17
2022-11-21T22:03:34.604Z,2.67
2022-11-21T22:08:33.224Z,2.83
2022-11-21T22:11:04.315Z,2.38
2022-11-21T22:13:31.004Z,3.22
2022-11-21T22:15:58.529Z,2.80
2022-11-21T22:18:25.300Z,2.72
2022-11-21T22:20:52.598Z,2.60
2022-11-21T22:25:46.080Z,2.60
2022-11-21T22:28:12.861Z,2.72
2022-11-21T22:30:39.435Z,2.78
2022-11-21T22:33:06.363Z,3.22
2022-11-21T22:35:33.839Z,2.65
2022-11-21T22:38:00.864Z,2.83
2022-11-21T22:40:27.337Z,3.30
2022-11-21T22:42:53.782Z,2.95
2022-11-21T22:45:20.235Z,2.78
2022-11-21T22:47:48.185Z,2.90
2022-11-21T22:50:15.510Z,2.83
2022-11-21T22:52:42.089Z,2.78
2022-11-21T22:55:09.183Z,3.13
2022-11-21T22:57:35.698Z,2.70
2022-11-21T23:00:02.473Z,2.67
2022-11-21T23:02:28.922Z,2.40
2022-11-21T23:04:55.374Z,3.00
2022-11-21T23:07:21.883Z,2.42
2022-11-21T23:09:48.362Z,2.88
2022-11-21T23:12:14.853Z,2.45
2022-11-21T23:14:41.293Z,2.80
2022-11-21T23:17:07.776Z,2.65
2022-11-21T23:19:34.198Z,2.38
2022-11-21T23:22:00.639Z,2.72
2022-11-21T23:24:27.082Z,2.30
2022-11-21T23:26:53.625Z,2.80
2022-11-21T23:29:20.100Z,2.70
2022-11-21T23:31:46.540Z,2.17
2022-11-21T23:34:12.993Z,2.38
2022-11-21T23:36:39.539Z,2.42
2022-11-21T23:39:06.335Z,2.22
2022-11-21T23:41:32.795Z,2.58
2022-11-21T23:43:59.903Z,2.75
2022-11-21T23:46:27.467Z,2.35
2022-11-21T23:48:53.938Z,2.47
2022-11-21T23:51:20.494Z,2.67
2022-11-21T23:53:46.948Z,2.58
2022-11-21T23:56:13.849Z,2.53
2022-11-21T23:58:40.300Z,2.25
